Time;durP1;ratioP1;P1;durP2;ratioP2;P2;SDS_P1;SDS_P2;PMS_P1;PMS_P2;Temp;Humidity;BMP_temperature;BMP_pressure;BME280_temperature;BME280_humidity;BME280_pressure;Samples;Min_cycle;Max_cycle;Signal;HPM_P1;HPM_P2
2023/12/09 08:14:46;;;;;;;;;5.00;5.00;;;;;;;;5073347;22;45441;-75
2023/12/09 08:17:12;;;;;;;;;1.00;1.00;;;;;;;;5037512;28;45255;-75
2023/12/09 08:19:37;;;;;;;;;2.00;2.00;;;;;;;;5040053;28;45890;-75
2023/12/09 08:22:02;;;;;;;;;3.50;3.00;;;;;;;;5039715;28;45346;-75
2023/12/09 08:24:28;;;;;;;;;3.50;3.50;;;;;;;;5038393;28;45504;-75
2023/12/09 08:26:53;;;;;;;;;2.25;1.00;;;;;;;;5040178;28;45085;-75
2023/12/09 08:29:20;;;;;;;;;4.50;4.50;;;;;;;;5039351;28;45361;-75
2023/12/09 08:31:48;;;;;;;;;3.50;1.00;;;;;;;;5038991;28;44895;-75
2023/12/09 08:34:14;;;;;;;;;2.00;1.50;;;;;;;;5038135;28;45432;-75
2023/12/09 08:36:39;;;;;;;;;1.50;1.00;;;;;;;;5054559;28;45410;-75
2023/12/09 08:39:04;;;;;;;;;2.25;1.00;;;;;;;;5039155;28;45619;-75
2023/12/09 08:41:29;;;;;;;;;2.50;1.00;;;;;;;;5039929;28;45379;-75
2023/12/09 08:43:55;;;;;;;;;3.00;1.00;;;;;;;;5037972;28;47056;-75
2023/12/09 08:46:20;;;;;;;;;2.00;1.00;;;;;;;;5039940;28;45394;-75
2023/12/09 08:48:46;;;;;;;;;1.25;1.25;;;;;;;;5037964;28;45501;-75
2023/12/09 08:51:11;;;;;;;;;21.25;18.75;;;;;;;;5038491;28;45473;-75
2023/12/09 08:53:36;;;;;;;;;3.00;2.00;;;;;;;;5037014;28;45723;-74
2023/12/09 08:56:01;;;;;;;;;10.25;6.75;;;;;;;;5039902;28;45205;-75
2023/12/09 08:58:26;;;;;;;;;1.50;1.50;;;;;;;;5038569;28;45508;-75
2023/12/09 09:00:52;;;;;;;;;12.25;7.00;;;;;;;;5040214;28;45239;-75
2023/12/09 09:03:17;;;;;;;;;3.00;3.00;;;;;;;;5039207;28;45267;-75
2023/12/09 09:05:42;;;;;;;;;2.50;2.50;;;;;;;;5039470;28;44678;-75
2023/12/09 09:08:07;;;;;;;;;2.75;2.75;;;;;;;;5039077;28;45252;-75
2023/12/09 09:10:32;;;;;;;;;1.00;1.00;;;;;;;;5038843;28;45948;-75
2023/12/09 09:12:58;;;;;;;;;3.00;2.00;;;;;;;;5037892;28;46213;-74
2023/12/09 09:15:23;;;;;;;;;1.00;1.00;;;;;;;;5039182;28;45367;-75
2023/12/09 09:17:48;;;;;;;;;14.00;13.75;;;;;;;;5038931;28;45515;-75
2023/12/09 09:20:13;;;;;;;;;3.00;3.00;;;;;;;;5039366;28;45428;-75
2023/12/09 09:22:39;;;;;;;;;6.50;6.50;;;;;;;;5035415;28;46682;-75
2023/12/09 09:25:04;;;;;;;;;6.50;6.00;;;;;;;;5037638;28;45449;-74
2023/12/09 09:27:29;;;;;;;;;2.25;2.00;;;;;;;;5038981;28;45458;-74
2023/12/09 09:29:55;;;;;;;;;6.00;5.00;;;;;;;;5038512;28;45663;-74
2023/12/09 09:32:21;;;;;;;;;3.25;1.00;;;;;;;;5038435;28;45965;-74
2023/12/09 09:34:46;;;;;;;;;0.50;0.50;;;;;;;;5039368;28;45358;-74
2023/12/09 09:37:12;;;;;;;;;3.00;1.75;;;;;;;;5039511;28;45444;-80
2023/12/09 09:39:38;;;;;;;;;5.75;2.00;;;;;;;;5042532;28;45445;-79
2023/12/09 09:42:08;;;;;;;;;5.00;5.00;;;;;;;;5040969;28;46753;-78
2023/12/09 09:44:38;;;;;;;;;1.00;1.00;;;;;;;;5052292;28;45233;-76
2023/12/09 09:47:03;;;;;;;;;5.00;5.00;;;;;;;;5053234;28;45205;-78
2023/12/09 09:49:30;;;;;;;;;5.00;4.00;;;;;;;;5041599;28;45512;-76
2023/12/09 09:51:56;;;;;;;;;8.75;5.75;;;;;;;;5039061;28;45287;-75
2023/12/09 09:54:25;;;;;;;;;5.75;3.00;;;;;;;;5038326;28;45436;-76
2023/12/09 09:56:51;;;;;;;;;0.00;0.00;;;;;;;;5038952;28;45359;-75
2023/12/09 09:59:20;;;;;;;;;5.50;3.00;;;;;;;;5038154;28;45398;-75
2023/12/09 10:01:46;;;;;;;;;0.00;0.00;;;;;;;;5035846;28;47528;-75
2023/12/09 10:04:11;;;;;;;;;27.75;24.00;;;;;;;;5038345;28;45343;-79
2023/12/09 10:06:36;;;;;;;;;0.67;0.67;;;;;;;;5038922;28;45270;-76
2023/12/09 10:09:02;;;;;;;;;2.75;2.25;;;;;;;;5038155;28;45526;-76
2023/12/09 10:11:27;;;;;;;;;4.00;4.00;;;;;;;;5037261;28;45354;-77
2023/12/09 10:13:52;;;;;;;;;2.00;2.00;;;;;;;;5037495;28;44810;-75
2023/12/09 10:16:18;;;;;;;;;3.00;3.00;;;;;;;;5038446;28;45548;-77
2023/12/09 10:18:45;;;;;;;;;0.75;0.75;;;;;;;;5037991;28;45327;-76
2023/12/09 10:21:11;;;;;;;;;0.75;0.75;;;;;;;;5041977;28;46064;-75
2023/12/09 10:23:36;;;;;;;;;0.00;0.00;;;;;;;;5041817;28;45312;-73
2023/12/09 10:26:01;;;;;;;;;0.00;0.00;;;;;;;;5040049;28;44674;-73
2023/12/09 10:28:26;;;;;;;;;1.75;1.75;;;;;;;;5043350;28;45239;-75
2023/12/09 10:30:52;;;;;;;;;0.00;0.00;;;;;;;;5038242;28;45393;-75
2023/12/09 10:33:17;;;;;;;;;0.00;0.00;;;;;;;;5039772;28;45348;-76
2023/12/09 10:35:42;;;;;;;;;0.00;0.00;;;;;;;;5033710;28;45247;-74
2023/12/09 10:38:08;;;;;;;;;4.00;3.75;;;;;;;;5032487;28;45151;-77
2023/12/09 10:40:33;;;;;;;;;0.00;0.00;;;;;;;;5041625;28;45485;-76
2023/12/09 10:42:59;;;;;;;;;0.00;0.00;;;;;;;;5041195;28;45242;-76
2023/12/09 10:45:24;;;;;;;;;0.00;0.00;;;;;;;;5041816;28;45284;-73
2023/12/09 10:47:49;;;;;;;;;0.33;0.00;;;;;;;;5041502;28;45803;-73
2023/12/09 10:50:14;;;;;;;;;0.00;0.00;;;;;;;;5041417;28;46020;-74
2023/12/09 10:52:39;;;;;;;;;0.00;0.00;;;;;;;;5052600;28;45379;-74
2023/12/09 10:55:05;;;;;;;;;2.00;2.00;;;;;;;;5041537;28;45263;-75
2023/12/09 10:57:33;;;;;;;;;1.00;1.00;;;;;;;;5040986;28;46199;-75
2023/12/09 11:00:00;;;;;;;;;4.00;4.00;;;;;;;;5041304;28;45402;-75
2023/12/09 11:02:26;;;;;;;;;3.25;3.25;;;;;;;;5039895;28;45270;-75
2023/12/09 11:04:52;;;;;;;;;1.67;1.67;;;;;;;;5041173;28;45156;-75
2023/12/09 11:07:17;;;;;;;;;0.00;0.00;;;;;;;;5042326;28;45207;-75
2023/12/09 11:09:42;;;;;;;;;1.00;1.00;;;;;;;;5042386;28;46326;-74
2023/12/09 11:12:08;;;;;;;;;0.67;0.67;;;;;;;;5057215;28;45307;-74
2023/12/09 11:14:34;;;;;;;;;1.00;1.00;;;;;;;;5040479;28;45343;-76
2023/12/09 11:17:01;;;;;;;;;0.00;0.00;;;;;;;;5040029;28;46529;-78
2023/12/09 11:19:26;;;;;;;;;3.00;0.00;;;;;;;;5040455;28;45320;-77
2023/12/09 11:21:52;;;;;;;;;2.67;2.67;;;;;;;;5041301;28;45244;-78
2023/12/09 11:24:18;;;;;;;;;0.33;0.33;;;;;;;;5041188;28;45225;-78
2023/12/09 11:26:47;;;;;;;;;0.67;0.67;;;;;;;;5030787;28;45711;-77
2023/12/09 11:29:12;;;;;;;;;0.33;0.33;;;;;;;;5040174;28;45343;-77
2023/12/09 11:31:38;;;;;;;;;2.00;0.00;;;;;;;;5040075;28;45234;-77
2023/12/09 11:34:04;;;;;;;;;7.00;5.67;;;;;;;;5040909;28;45224;-78
2023/12/09 11:36:30;;;;;;;;;2.00;2.00;;;;;;;;5041555;28;45256;-80
2023/12/09 11:38:56;;;;;;;;;1.67;1.67;;;;;;;;5039037;28;46336;-79
2023/12/09 11:41:21;;;;;;;;;2.00;2.00;;;;;;;;5041640;28;45405;-78
2023/12/09 11:43:47;;;;;;;;;2.00;2.00;;;;;;;;5041677;28;45461;-79
2023/12/09 11:46:12;;;;;;;;;1.00;1.00;;;;;;;;5042971;28;45829;-79
2023/12/09 11:48:38;;;;;;;;;1.00;1.00;;;;;;;;5043659;28;45533;-79
2023/12/09 11:51:04;;;;;;;;;3.00;1.00;;;;;;;;5044440;28;44784;-77
2023/12/09 11:53:29;;;;;;;;;0.00;0.00;;;;;;;;5041726;28;45422;-79
2023/12/09 11:55:55;;;;;;;;;0.00;0.00;;;;;;;;5041294;28;44598;-76
2023/12/09 11:58:20;;;;;;;;;3.00;2.00;;;;;;;;5039750;28;45506;-74
2023/12/09 12:00:45;;;;;;;;;1.00;1.00;;;;;;;;5039679;28;45407;-74
2023/12/09 12:03:11;;;;;;;;;0.33;0.33;;;;;;;;5040255;28;45557;-74
2023/12/09 12:05:37;;;;;;;;;3.33;1.00;;;;;;;;5040783;28;45208;-74
2023/12/09 12:08:03;;;;;;;;;2.00;2.00;;;;;;;;5039668;28;45569;-74
2023/12/09 12:10:29;;;;;;;;;0.00;0.00;;;;;;;;5039222;28;45428;-75
2023/12/09 12:12:54;;;;;;;;;1.00;1.00;;;;;;;;5039741;28;45403;-75
2023/12/09 12:15:19;;;;;;;;;2.00;0.00;;;;;;;;5040089;28;45351;-75
2023/12/09 12:17:44;;;;;;;;;1.00;1.00;;;;;;;;5039732;28;46199;-75
2023/12/09 12:20:10;;;;;;;;;0.00;0.00;;;;;;;;5040626;28;45258;-75
2023/12/09 12:22:35;;;;;;;;;1.00;1.00;;;;;;;;5047577;28;45338;-75
2023/12/09 12:25:01;;;;;;;;;0.00;0.00;;;;;;;;5040066;28;44823;-75
2023/12/09 12:27:26;;;;;;;;;0.33;0.33;;;;;;;;5039883;28;45454;-75
2023/12/09 12:29:51;;;;;;;;;2.00;1.00;;;;;;;;5041826;28;44717;-75
2023/12/09 12:32:17;;;;;;;;;1.00;1.00;;;;;;;;5031757;28;44698;-74
2023/12/09 12:34:45;;;;;;;;;1.00;1.00;;;;;;;;5046024;28;45412;-75
2023/12/09 12:37:10;;;;;;;;;1.67;1.00;;;;;;;;5038418;28;47000;-76
2023/12/09 12:39:36;;;;;;;;;0.33;0.33;;;;;;;;5039571;28;45240;-74
2023/12/09 12:42:01;;;;;;;;;0.00;0.00;;;;;;;;5037352;28;45286;-75
2023/12/09 12:44:26;;;;;;;;;0.67;0.67;;;;;;;;5039555;28;45288;-75
2023/12/09 12:46:52;;;;;;;;;0.00;0.00;;;;;;;;5040443;28;45152;-75
2023/12/09 12:49:17;;;;;;;;;1.00;1.00;;;;;;;;5039911;28;45197;-75
2023/12/09 12:51:42;;;;;;;;;0.00;0.00;;;;;;;;5040225;28;45585;-75
2023/12/09 12:54:07;;;;;;;;;0.00;0.00;;;;;;;;5039552;28;44777;-75
2023/12/09 12:56:32;;;;;;;;;1.00;0.00;;;;;;;;5039967;28;46334;-75
2023/12/09 12:58:57;;;;;;;;;2.00;0.00;;;;;;;;5033844;28;45434;-78
2023/12/09 13:01:23;;;;;;;;;1.00;1.00;;;;;;;;5040056;28;45248;-77
2023/12/09 13:03:48;;;;;;;;;0.67;0.67;;;;;;;;5039703;28;45451;-77
2023/12/09 13:06:13;;;;;;;;;2.33;1.00;;;;;;;;5040212;28;45286;-77
2023/12/09 13:08:39;;;;;;;;;0.00;0.00;;;;;;;;5038826;28;45347;-77
2023/12/09 13:11:04;;;;;;;;;1.00;1.00;;;;;;;;5041617;28;45450;-76
2023/12/09 13:13:29;;;;;;;;;2.33;1.00;;;;;;;;5040695;28;45257;-75
2023/12/09 13:15:55;;;;;;;;;0.00;0.00;;;;;;;;5040288;28;47987;-75
2023/12/09 13:18:21;;;;;;;;;0.00;0.00;;;;;;;;5040892;28;45248;-73
2023/12/09 13:20:49;;;;;;;;;0.33;0.33;;;;;;;;5039702;28;45351;-73
2023/12/09 13:23:14;;;;;;;;;0.67;0.67;;;;;;;;5039552;28;45490;-75
2023/12/09 13:25:39;;;;;;;;;2.33;2.33;;;;;;;;5040839;28;45357;-76
2023/12/09 13:28:04;;;;;;;;;1.67;1.67;;;;;;;;5041099;28;45622;-76
2023/12/09 13:30:29;;;;;;;;;4.33;4.33;;;;;;;;5037141;28;45232;-75
2023/12/09 13:33:00;;;;;;;;;1.00;0.00;;;;;;;;5039314;28;45636;-75
2023/12/09 13:35:25;;;;;;;;;1.00;1.00;;;;;;;;5037608;28;45285;-75
2023/12/09 13:37:50;;;;;;;;;2.00;2.00;;;;;;;;5027535;28;45445;-75
2023/12/09 13:40:16;;;;;;;;;1.00;1.00;;;;;;;;5031329;28;45397;-75
2023/12/09 13:42:41;;;;;;;;;3.33;2.00;;;;;;;;5027080;28;46096;-76
2023/12/09 13:45:06;;;;;;;;;0.00;0.00;;;;;;;;5031296;28;45578;-76
2023/12/09 13:47:32;;;;;;;;;0.33;0.33;;;;;;;;5028898;28;45356;-76
2023/12/09 13:49:57;;;;;;;;;0.00;0.00;;;;;;;;5040658;28;45308;-78
2023/12/09 13:52:28;;;;;;;;;1.00;1.00;;;;;;;;5034732;28;45251;-76
2023/12/09 13:54:53;;;;;;;;;0.00;0.00;;;;;;;;5041260;28;46492;-76
2023/12/09 13:57:18;;;;;;;;;0.00;0.00;;;;;;;;5039872;28;45419;-76
2023/12/09 13:59:44;;;;;;;;;1.00;1.00;;;;;;;;5040771;28;45143;-75
2023/12/09 14:02:09;;;;;;;;;0.00;0.00;;;;;;;;5038100;28;45779;-76
2023/12/09 14:04:35;;;;;;;;;1.00;1.00;;;;;;;;5053450;28;46741;-76
2023/12/09 14:07:00;;;;;;;;;2.00;2.00;;;;;;;;5039461;28;45256;-76
2023/12/09 14:09:25;;;;;;;;;7.00;4.00;;;;;;;;5038687;28;45338;-76
2023/12/09 14:11:51;;;;;;;;;5.33;5.00;;;;;;;;5039362;28;45341;-76
2023/12/09 14:14:16;;;;;;;;;6.33;5.33;;;;;;;;5038017;28;46008;-76
2023/12/09 14:16:42;;;;;;;;;10.00;8.67;;;;;;;;5037556;28;45348;-76
2023/12/09 14:19:10;;;;;;;;;4.33;4.00;;;;;;;;5038790;28;45148;-76
2023/12/09 14:21:35;;;;;;;;;2.00;2.00;;;;;;;;5038891;28;45220;-76
2023/12/09 14:24:00;;;;;;;;;3.00;3.00;;;;;;;;5038282;28;45415;-76
2023/12/09 14:26:28;;;;;;;;;3.00;3.00;;;;;;;;5039515;28;45435;-76
2023/12/09 14:28:54;;;;;;;;;3.67;3.67;;;;;;;;5034552;28;45272;-75
2023/12/09 14:31:19;;;;;;;;;2.00;2.00;;;;;;;;5039885;28;45157;-76
2023/12/09 14:33:44;;;;;;;;;0.33;0.33;;;;;;;;5040375;28;45294;-78
2023/12/09 14:36:10;;;;;;;;;1.00;1.00;;;;;;;;5042880;28;45252;-78
2023/12/09 14:38:35;;;;;;;;;1.67;1.00;;;;;;;;5042743;28;45244;-84
2023/12/09 14:41:00;;;;;;;;;0.00;0.00;;;;;;;;5042921;28;45322;-78
2023/12/09 14:43:25;;;;;;;;;1.00;0.00;;;;;;;;5039023;28;46975;-77
2023/12/09 14:45:51;;;;;;;;;0.00;0.00;;;;;;;;5039429;28;45240;-77
2023/12/09 14:48:16;;;;;;;;;0.00;0.00;;;;;;;;5038447;28;45502;-77
2023/12/09 14:50:42;;;;;;;;;0.00;0.00;;;;;;;;5038938;28;45347;-77
2023/12/09 14:53:11;;;;;;;;;0.00;0.00;;;;;;;;5036346;28;47364;-76
2023/12/09 14:55:36;;;;;;;;;0.00;0.00;;;;;;;;5038632;28;45265;-77
2023/12/09 14:58:02;;;;;;;;;1.00;0.00;;;;;;;;5035001;28;45369;-78
2023/12/09 15:00:28;;;;;;;;;1.00;1.00;;;;;;;;5037593;28;46060;-77
2023/12/09 15:02:53;;;;;;;;;1.00;0.00;;;;;;;;5035041;28;45383;-77
2023/12/09 15:05:19;;;;;;;;;0.00;0.00;;;;;;;;5039423;28;45409;-77
2023/12/09 15:07:45;;;;;;;;;0.00;0.00;;;;;;;;5041573;28;45734;-76
2023/12/09 15:10:10;;;;;;;;;0.00;0.00;;;;;;;;5041103;28;46225;-76
2023/12/09 15:12:36;;;;;;;;;0.00;0.00;;;;;;;;5039829;28;46792;-76
2023/12/09 15:15:02;;;;;;;;;1.00;0.00;;;;;;;;5041844;28;45305;-75
2023/12/09 15:17:27;;;;;;;;;0.00;0.00;;;;;;;;5044983;28;45306;-76
2023/12/09 15:19:53;;;;;;;;;0.00;0.00;;;;;;;;5045113;28;45303;-74
2023/12/09 15:22:18;;;;;;;;;0.67;0.00;;;;;;;;5044517;28;45376;-76
2023/12/09 15:24:43;;;;;;;;;0.00;0.00;;;;;;;;5039492;28;44733;-74
2023/12/09 15:27:08;;;;;;;;;0.00;0.00;;;;;;;;5036968;28;45379;-76
2023/12/09 15:29:34;;;;;;;;;0.00;0.00;;;;;;;;5041028;28;45864;-76
2023/12/09 15:31:59;;;;;;;;;1.00;1.00;;;;;;;;5050026;28;46918;-76
2023/12/09 15:34:24;;;;;;;;;0.00;0.00;;;;;;;;5039901;28;44907;-76
2023/12/09 15:36:49;;;;;;;;;0.00;0.00;;;;;;;;5047343;28;44811;-76
2023/12/09 15:39:16;;;;;;;;;2.00;2.00;;;;;;;;5039377;28;46047;-76
2023/12/09 15:41:41;;;;;;;;;1.00;1.00;;;;;;;;5040011;28;46903;-76
2023/12/09 15:44:06;;;;;;;;;3.67;2.00;;;;;;;;5040523;28;45483;-76
2023/12/09 15:46:31;;;;;;;;;2.00;1.00;;;;;;;;5041469;28;45169;-76
2023/12/09 15:48:59;;;;;;;;;0.00;0.00;;;;;;;;5040777;28;45185;-75
2023/12/09 15:51:25;;;;;;;;;0.00;0.00;;;;;;;;5041149;28;45977;-75
2023/12/09 15:53:50;;;;;;;;;2.00;0.00;;;;;;;;5055628;28;45419;-75
2023/12/09 15:56:15;;;;;;;;;2.00;2.00;;;;;;;;5041516;28;45473;-76
2023/12/09 15:58:40;;;;;;;;;3.00;1.00;;;;;;;;5041940;28;45351;-75
2023/12/09 16:01:05;;;;;;;;;4.67;2.00;;;;;;;;5044967;28;45664;-75
2023/12/09 16:03:31;;;;;;;;;1.33;1.33;;;;;;;;5044368;28;45438;-76
2023/12/09 16:05:57;;;;;;;;;1.00;0.00;;;;;;;;5043225;28;45335;-75
2023/12/09 16:08:24;;;;;;;;;3.00;1.00;;;;;;;;5053719;28;45347;-75
2023/12/09 16:10:49;;;;;;;;;2.00;1.00;;;;;;;;5041121;28;45271;-75
2023/12/09 16:13:15;;;;;;;;;1.00;1.00;;;;;;;;5039469;28;45354;-76
2023/12/09 16:15:40;;;;;;;;;4.33;2.00;;;;;;;;5037921;28;44721;-75
2023/12/09 16:18:06;;;;;;;;;3.00;3.00;;;;;;;;5037338;28;45344;-77
2023/12/09 16:20:32;;;;;;;;;3.33;1.00;;;;;;;;5040463;28;45385;-76
2023/12/09 16:22:57;;;;;;;;;4.00;2.00;;;;;;;;5038483;28;45332;-76
2023/12/09 16:25:22;;;;;;;;;3.67;2.00;;;;;;;;5039340;28;45239;-76
2023/12/09 16:27:48;;;;;;;;;0.00;0.00;;;;;;;;5039528;28;45178;-76
2023/12/09 16:30:13;;;;;;;;;8.00;3.33;;;;;;;;5040485;28;45168;-75
2023/12/09 16:32:38;;;;;;;;;4.00;2.33;;;;;;;;5039625;28;45216;-76
2023/12/09 16:35:04;;;;;;;;;5.67;3.00;;;;;;;;5040641;28;45544;-77
2023/12/09 16:37:29;;;;;;;;;7.00;4.67;;;;;;;;5040629;28;45138;-76
2023/12/09 16:39:54;;;;;;;;;6.00;3.00;;;;;;;;5041555;28;46857;-77
2023/12/09 16:42:19;;;;;;;;;2.00;0.00;;;;;;;;5042758;28;45631;-77
2023/12/09 16:44:45;;;;;;;;;2.67;1.00;;;;;;;;5044024;28;45326;-76
2023/12/09 16:47:10;;;;;;;;;5.33;3.00;;;;;;;;5042624;28;45481;-76
2023/12/09 16:49:35;;;;;;;;;8.67;4.33;;;;;;;;5041804;28;45095;-77
2023/12/09 16:52:00;;;;;;;;;4.33;3.33;;;;;;;;5040313;28;45400;-76
2023/12/09 16:54:26;;;;;;;;;4.00;2.00;;;;;;;;5039846;28;45207;-76
2023/12/09 16:56:51;;;;;;;;;2.33;1.33;;;;;;;;5038565;28;46095;-77
2023/12/09 16:59:18;;;;;;;;;5.00;3.33;;;;;;;;5039325;28;45554;-76
2023/12/09 17:01:43;;;;;;;;;7.00;3.33;;;;;;;;5039372;28;45303;-76
2023/12/09 17:04:08;;;;;;;;;8.67;5.33;;;;;;;;5049581;28;45426;-75
2023/12/09 17:06:33;;;;;;;;;6.33;4.33;;;;;;;;5049114;28;46275;-75
2023/12/09 17:08:59;;;;;;;;;3.00;2.33;;;;;;;;5043925;28;45652;-76
2023/12/09 17:11:24;;;;;;;;;7.33;4.00;;;;;;;;5040738;28;45310;-76
2023/12/09 17:13:49;;;;;;;;;7.67;3.33;;;;;;;;5039524;28;45348;-76
2023/12/09 17:16:14;;;;;;;;;4.00;2.33;;;;;;;;5039904;28;44760;-76
2023/12/09 17:18:40;;;;;;;;;3.33;2.00;;;;;;;;5037741;28;45793;-76
2023/12/09 17:21:05;;;;;;;;;7.00;2.33;;;;;;;;5041991;28;45296;-76
2023/12/09 17:23:33;;;;;;;;;10.00;5.67;;;;;;;;5043262;28;45326;-76
2023/12/09 17:25:58;;;;;;;;;6.33;5.00;;;;;;;;5043247;28;45222;-76
2023/12/09 17:28:23;;;;;;;;;7.00;4.00;;;;;;;;5042025;28;45489;-76
2023/12/09 17:30:49;;;;;;;;;9.00;5.00;;;;;;;;5048320;28;45238;-75
2023/12/09 17:33:14;;;;;;;;;8.33;4.00;;;;;;;;5035938;28;45447;-75
2023/12/09 17:35:40;;;;;;;;;6.00;4.33;;;;;;;;5039230;28;44813;-75
2023/12/09 17:38:05;;;;;;;;;6.67;5.00;;;;;;;;5036866;28;45544;-75
2023/12/09 17:40:30;;;;;;;;;8.67;4.00;;;;;;;;5037912;28;45256;-76
2023/12/09 17:42:55;;;;;;;;;7.00;4.33;;;;;;;;5038893;28;45273;-76
2023/12/09 17:45:21;;;;;;;;;7.00;3.33;;;;;;;;5029000;28;45335;-77
2023/12/09 17:47:46;;;;;;;;;6.33;4.33;;;;;;;;5026694;28;45287;-76
2023/12/09 17:50:12;;;;;;;;;8.33;4.67;;;;;;;;5038522;28;45360;-77
2023/12/09 17:52:37;;;;;;;;;10.00;7.00;;;;;;;;5035711;28;45517;-76
2023/12/09 17:55:02;;;;;;;;;14.67;8.00;;;;;;;;5039145;28;45371;-75
2023/12/09 17:57:27;;;;;;;;;12.00;4.33;;;;;;;;5036953;28;45546;-75
2023/12/09 17:59:54;;;;;;;;;10.00;5.33;;;;;;;;5039126;28;45430;-76
2023/12/09 18:02:19;;;;;;;;;12.67;6.67;;;;;;;;5034051;28;45311;-76
2023/12/09 18:04:44;;;;;;;;;11.00;6.33;;;;;;;;5042436;28;44788;-75
2023/12/09 18:07:10;;;;;;;;;13.67;7.00;;;;;;;;5042048;28;45453;-77
2023/12/09 18:09:35;;;;;;;;;7.67;7.33;;;;;;;;5042208;28;45350;-76
2023/12/09 18:12:00;;;;;;;;;9.00;5.00;;;;;;;;5042971;28;45235;-77
2023/12/09 18:14:25;;;;;;;;;6.00;4.00;;;;;;;;5038169;28;45361;-76
2023/12/09 18:16:51;;;;;;;;;9.67;7.00;;;;;;;;5039068;28;45501;-75
2023/12/09 18:19:16;;;;;;;;;8.67;4.33;;;;;;;;5038299;28;45378;-75
2023/12/09 18:21:41;;;;;;;;;6.33;3.33;;;;;;;;5038490;28;45280;-78
2023/12/09 18:24:06;;;;;;;;;6.33;5.00;;;;;;;;5038717;28;45205;-77
2023/12/09 18:26:32;;;;;;;;;6.33;5.33;;;;;;;;5037930;28;45405;-79
2023/12/09 18:28:57;;;;;;;;;8.33;5.00;;;;;;;;5038647;28;45162;-77
2023/12/09 18:31:23;;;;;;;;;13.00;8.33;;;;;;;;5047433;28;44695;-77
2023/12/09 18:33:48;;;;;;;;;58.50;47.00;;;;;;;;5037845;28;45256;-74
2023/12/09 18:36:13;;;;;;;;;37.25;27.00;;;;;;;;5038592;28;45158;-72
2023/12/09 18:38:38;;;;;;;;;11.00;8.00;;;;;;;;5038309;28;45320;-79
2023/12/09 18:41:04;;;;;;;;;9.67;5.33;;;;;;;;5040968;28;45389;-76
2023/12/09 18:43:29;;;;;;;;;10.33;6.00;;;;;;;;5041202;28;45558;-76
2023/12/09 18:45:54;;;;;;;;;6.67;4.67;;;;;;;;5045421;28;45446;-76
2023/12/09 18:48:20;;;;;;;;;2.33;2.00;;;;;;;;5058643;28;44787;-76
2023/12/09 18:50:45;;;;;;;;;14.67;8.67;;;;;;;;5044306;28;44840;-76
2023/12/09 18:53:10;;;;;;;;;10.00;6.00;;;;;;;;5044313;28;44992;-75
2023/12/09 18:55:35;;;;;;;;;11.00;6.67;;;;;;;;5041030;28;47113;-75
2023/12/09 18:58:01;;;;;;;;;8.33;6.67;;;;;;;;5040974;28;45354;-75
2023/12/09 19:00:26;;;;;;;;;8.75;7.00;;;;;;;;5040301;28;45341;-76
2023/12/09 19:02:51;;;;;;;;;10.33;7.67;;;;;;;;5041147;28;45564;-76
2023/12/09 19:05:16;;;;;;;;;9.33;6.00;;;;;;;;5040386;28;46532;-76
2023/12/09 19:07:42;;;;;;;;;20.50;6.00;;;;;;;;5056404;28;45475;-75
2023/12/09 19:10:07;;;;;;;;;7.00;4.00;;;;;;;;5041257;28;45446;-76
2023/12/09 19:12:32;;;;;;;;;15.67;8.00;;;;;;;;5040785;28;44853;-75
2023/12/09 19:14:58;;;;;;;;;12.33;7.33;;;;;;;;5040742;28;45299;-76
2023/12/09 19:17:23;;;;;;;;;9.33;7.67;;;;;;;;5056493;28;45394;-75
2023/12/09 19:19:48;;;;;;;;;7.33;5.33;;;;;;;;5039538;28;45441;-74
2023/12/09 19:22:14;;;;;;;;;10.67;8.00;;;;;;;;5041281;28;45290;-75
2023/12/09 19:24:39;;;;;;;;;11.33;5.67;;;;;;;;5040493;28;45361;-76
2023/12/09 19:27:05;;;;;;;;;16.33;7.33;;;;;;;;5041740;28;45315;-76
2023/12/09 19:29:30;;;;;;;;;13.67;8.00;;;;;;;;5037815;28;44956;-76
2023/12/09 19:31:56;;;;;;;;;12.33;10.33;;;;;;;;5043610;28;45123;-76
2023/12/09 19:34:23;;;;;;;;;11.00;6.00;;;;;;;;5042770;28;45361;-77
2023/12/09 19:36:48;;;;;;;;;10.00;7.33;;;;;;;;5042925;28;45256;-77
2023/12/09 19:39:15;;;;;;;;;10.33;8.00;;;;;;;;5039380;28;45189;-77
2023/12/09 19:41:40;;;;;;;;;13.67;7.33;;;;;;;;5039749;28;45318;-77
2023/12/09 19:44:05;;;;;;;;;9.67;6.00;;;;;;;;5039876;28;45450;-77
2023/12/09 19:46:31;;;;;;;;;11.00;6.33;;;;;;;;5041043;28;45357;-76
2023/12/09 19:48:56;;;;;;;;;11.33;7.00;;;;;;;;5039136;28;44777;-77
2023/12/09 19:51:21;;;;;;;;;15.75;9.25;;;;;;;;5040725;28;45299;-77
2023/12/09 19:53:46;;;;;;;;;29.00;21.50;;;;;;;;5039740;28;46220;-75
2023/12/09 19:56:11;;;;;;;;;12.67;11.33;;;;;;;;5041317;28;45541;-77
2023/12/09 19:58:36;;;;;;;;;9.50;6.75;;;;;;;;5040949;28;44820;-77
2023/12/09 20:01:02;;;;;;;;;7.75;5.00;;;;;;;;5041001;28;45225;-78
2023/12/09 20:03:27;;;;;;;;;17.75;9.25;;;;;;;;5038872;28;45461;-78
2023/12/09 20:05:52;;;;;;;;;12.67;7.00;;;;;;;;5039999;28;45687;-77
2023/12/09 20:08:17;;;;;;;;;9.00;5.33;;;;;;;;5041380;28;45540;-76
2023/12/09 20:10:44;;;;;;;;;8.00;6.50;;;;;;;;5043259;28;45489;-75
2023/12/09 20:13:09;;;;;;;;;22.25;11.25;;;;;;;;5042143;28;45552;-75
2023/12/09 20:15:35;;;;;;;;;14.00;5.50;;;;;;;;5043270;28;44760;-77
2023/12/09 20:18:00;;;;;;;;;10.33;6.00;;;;;;;;5043974;28;45437;-76
2023/12/09 20:20:29;;;;;;;;;14.50;8.25;;;;;;;;5042085;28;45355;-77
2023/12/09 20:22:54;;;;;;;;;15.50;8.75;;;;;;;;5040365;28;46368;-76
2023/12/09 20:25:20;;;;;;;;;8.00;6.00;;;;;;;;5040330;28;45264;-75
2023/12/09 20:27:45;;;;;;;;;18.25;9.25;;;;;;;;5040066;28;45391;-76
2023/12/09 20:30:10;;;;;;;;;11.75;7.00;;;;;;;;5040333;28;45328;-80
2023/12/09 20:32:35;;;;;;;;;13.25;7.00;;;;;;;;5039827;28;46065;-79
2023/12/09 20:35:01;;;;;;;;;15.25;8.50;;;;;;;;5040447;28;45454;-78
2023/12/09 20:37:26;;;;;;;;;13.00;8.50;;;;;;;;5039881;28;45236;-76
2023/12/09 20:39:56;;;;;;;;;11.25;7.50;;;;;;;;5040843;28;45403;-76
2023/12/09 20:42:21;;;;;;;;;12.25;9.50;;;;;;;;5041331;28;45577;-76
2023/12/09 20:44:47;;;;;;;;;5.00;5.00;;;;;;;;5041783;28;45322;-77
2023/12/09 20:47:12;;;;;;;;;14.00;7.25;;;;;;;;5041116;28;45188;-76
2023/12/09 20:49:37;;;;;;;;;17.25;7.50;;;;;;;;5051377;28;45365;-76
2023/12/09 20:52:03;;;;;;;;;21.00;7.50;;;;;;;;5043978;28;45405;-77
2023/12/09 20:54:28;;;;;;;;;11.00;8.00;;;;;;;;5043681;28;45189;-75
2023/12/09 20:56:53;;;;;;;;;12.33;7.00;;;;;;;;5044054;28;45306;-78
2023/12/09 20:59:19;;;;;;;;;8.00;6.00;;;;;;;;5059223;28;46104;-79
2023/12/09 21:01:44;;;;;;;;;11.00;6.67;;;;;;;;5040932;28;45198;-75
2023/12/09 21:04:10;;;;;;;;;13.00;6.00;;;;;;;;5039747;28;45636;-74
2023/12/09 21:06:35;;;;;;;;;12.00;6.67;;;;;;;;5039600;28;45321;-74
2023/12/09 21:09:03;;;;;;;;;8.00;5.00;;;;;;;;5039322;28;45534;-75
2023/12/09 21:11:28;;;;;;;;;7.00;6.00;;;;;;;;5048876;28;47039;-75
2023/12/09 21:13:53;;;;;;;;;12.33;5.00;;;;;;;;5039085;28;45391;-77
2023/12/09 21:16:19;;;;;;;;;10.25;6.25;;;;;;;;5039722;28;45374;-76
2023/12/09 21:18:44;;;;;;;;;5.00;5.00;;;;;;;;5037919;28;45459;-77
2023/12/09 21:21:09;;;;;;;;;10.50;6.00;;;;;;;;5039130;28;46283;-76
2023/12/09 21:23:34;;;;;;;;;7.75;6.25;;;;;;;;5039448;28;45464;-76
2023/12/09 21:25:59;;;;;;;;;11.00;5.00;;;;;;;;5039409;28;45268;-75
2023/12/09 21:28:24;;;;;;;;;5.67;4.00;;;;;;;;5037549;28;45407;-76
2023/12/09 21:30:50;;;;;;;;;8.75;6.00;;;;;;;;5039585;28;45299;-75
2023/12/09 21:33:15;;;;;;;;;7.00;4.75;;;;;;;;5039981;28;44800;-76
2023/12/09 21:35:40;;;;;;;;;6.00;3.75;;;;;;;;5043047;28;45350;-75
2023/12/09 21:38:05;;;;;;;;;7.00;4.00;;;;;;;;5042993;28;46076;-76
2023/12/09 21:40:31;;;;;;;;;14.50;9.25;;;;;;;;5043402;28;45997;-77
2023/12/09 21:42:56;;;;;;;;;6.50;4.00;;;;;;;;5040368;28;45288;-78
2023/12/09 21:45:21;;;;;;;;;17.25;7.75;;;;;;;;5040809;28;45252;-75
2023/12/09 21:47:48;;;;;;;;;5.25;2.25;;;;;;;;5039230;28;45448;-75
2023/12/09 21:50:13;;;;;;;;;8.00;4.00;;;;;;;;5039325;28;45476;-75
2023/12/09 21:52:38;;;;;;;;;9.25;5.25;;;;;;;;5039132;28;46195;-75
2023/12/09 21:55:05;;;;;;;;;13.50;5.50;;;;;;;;5039275;28;45283;-76
2023/12/09 21:57:31;;;;;;;;;5.25;5.25;;;;;;;;5038678;28;45207;-76
2023/12/09 21:59:57;;;;;;;;;11.00;5.00;;;;;;;;5037039;28;46345;-79
2023/12/09 22:02:23;;;;;;;;;16.25;6.25;;;;;;;;5037631;28;45243;-75
2023/12/09 22:04:48;;;;;;;;;6.75;5.50;;;;;;;;5038778;28;45299;-75
2023/12/09 22:07:13;;;;;;;;;6.25;3.50;;;;;;;;5037908;28;45977;-76
2023/12/09 22:09:38;;;;;;;;;5.25;4.00;;;;;;;;5036256;28;48008;-76
2023/12/09 22:12:05;;;;;;;;;7.00;5.25;;;;;;;;5036889;28;45350;-75
2023/12/09 22:14:30;;;;;;;;;14.25;6.25;;;;;;;;5039236;28;45365;-76
2023/12/09 22:16:55;;;;;;;;;14.00;8.75;;;;;;;;5046149;28;45372;-75
2023/12/09 22:19:20;;;;;;;;;6.25;4.25;;;;;;;;5044686;28;47555;-75
2023/12/09 22:21:46;;;;;;;;;11.25;5.00;;;;;;;;5062089;28;45304;-75
2023/12/09 22:24:11;;;;;;;;;3.75;3.00;;;;;;;;5042509;28;44726;-75
2023/12/09 22:26:41;;;;;;;;;7.00;4.67;;;;;;;;5040701;28;44742;-74
2023/12/09 22:29:06;;;;;;;;;4.50;4.25;;;;;;;;5041523;28;46052;-75
2023/12/09 22:31:31;;;;;;;;;6.00;3.00;;;;;;;;5041139;28;45381;-75
2023/12/09 22:33:56;;;;;;;;;5.67;3.00;;;;;;;;5041959;28;45311;-77
2023/12/09 22:36:22;;;;;;;;;4.00;3.67;;;;;;;;5042726;28;45330;-75
2023/12/09 22:38:47;;;;;;;;;6.00;4.00;;;;;;;;5041537;28;46394;-75
2023/12/09 22:41:21;;;;;;;;;6.25;6.25;;;;;;;;5042432;28;44725;-77
2023/12/09 22:43:47;;;;;;;;;9.25;3.25;;;;;;;;5041343;28;45443;-76